Terminal Aerodrome Forecast
Issued by NWS Lake Charles, LA

Home | Current Version | Previous Version | Text Only | Print | Product List | Glossary On
Versions: 1 2 3 4 5 6 7 8 9 10 11 12 13 14 15 16 17 18 19 20 21 22 23
000
FTUS44 KLCH 061121
TAFAEX
TAF
KAEX 061121Z 0612/0712 15003KT P6SM FEW005 SCT200
      TEMPO 0612/0614 6SM BR BKN007
     FM061800 19010KT P6SM SCT040
     FM062300 17005KT P6SM BKN250=

USA.gov is the U.S. government's official web portal to all federal, state and local government web resources and services.